M I D A S
Marine Information and Data Acquisition System
Tripno 1073 of the Zeeleeuw from 2006-04-20 07:26:10 to 2006-04-20 11:05:24
Back to CruiseResearch ActivitiesStationsMapUnderway DataData graphs

EquipmentUnitsComment
TimeDGPSUTC
LatitudeDGPSDM.mWGS84
LongitudeDGPSDM.mWGS84
TemperatureSBE03/SBE38deg celciusITS90
ConductivitySBE21S/mITS90
SalinitySBE21 Practical Salinity Units
ChlorophylAChelsea fluorimeterg/lCalibrated in Aceton
Missing or incorrect values are displayed as -999
Sea surface data collected by the RV Zeeleeuw from 2006-04-20 07:25:49 to 2006-04-20 11:23:34
Time Latitude Longitude Temperature Conductivity Salinity ChlorophylA
2006-04-20 07:26:54 51°13.616 2°56.032 -999 4.264639 31.659092 19.107298
2006-04-20 07:27:55 51°13.641 2°55.932 -999 3.596564 31.228703 10.477691
2006-04-20 07:28:54 51°13.686 2°55.825 -999 3.498097 31.095328 9.702375
2006-04-20 07:29:55 51°13.717 2°55.739 -999 3.468488 30.980384 9.533828
2006-04-20 07:30:54 51°13.728 2°55.717 -999 3.48319 31.180637 9.870922
2006-04-20 07:31:54 51°13.724 2°55.709 -999 3.409582 30.480086 10.208016
2006-04-20 07:32:54 51°13.748 2°55.695 -999 3.439915 30.83126 10.781076
2006-04-20 07:33:54 51°13.816 2°55.635 -999 3.392191 30.337274 10.983332
2006-04-20 07:34:54 51°13.887 2°55.579 -999 3.332673 29.766752 11.556392
2006-04-20 07:35:54 51°13.982 2°55.515 -999 3.45296 31.015456 12.129452
2006-04-20 07:36:54 51°14.105 2°55.431 -999 3.504211 31.535305 12.297999
2006-04-20 07:37:54 51°14.232 2°55.305 -999 3.448819 30.969646 11.893486
2006-04-20 07:38:54 51°14.336 2°55.117 -999 3.462278 31.096187 11.65752
2006-04-20 07:39:54 51°14.454 2°54.947 -999 3.504729 31.528918 11.893486
2006-04-20 07:40:54 51°14.594 2°54.813 -999 3.607871 32.698984 11.960905
2006-04-20 07:41:54 51°14.763 2°54.635 -999 3.667115 33.337702 11.859777
2006-04-20 07:42:54 51°14.956 2°54.46 -999 3.691664 33.567169 11.286717
2006-04-20 07:43:54 51°15.144 2°54.278 -999 3.715076 33.886738 10.174306
2006-04-20 07:44:54 51°15.339 2°54.105 -999 3.727717 34.235586 10.882204
2006-04-20 07:45:54 51°15.53 2°53.932 -999 3.709899 34.061867 10.106888
2006-04-20 07:46:54 51°15.721 2°53.767 -999 3.707724 34.037937 10.342853
2006-04-20 07:47:54 51°15.915 2°53.604 -999 3.71021 34.060812 10.376563
2006-04-20 07:48:54 51°16.106 2°53.444 -999 3.71052 34.02764 10.814785
2006-04-20 07:49:54 51°16.298 2°53.278 -999 3.709795 34.013484 11.253007
2006-04-20 07:50:54 51°16.492 2°53.115 -999 3.710313 34.012021 11.455264
2006-04-20 07:51:54 51°16.688 2°52.956 -999 3.707827 34.0128 11.893486
2006-04-20 07:52:54 51°16.883 2°52.8 -999 3.714561 34.093433 11.320426
2006-04-20 07:53:54 51°17.093 2°52.712 -999 3.715286 34.129664 11.455264
2006-04-20 07:54:54 51°17.311 2°52.676 -999 3.719119 34.190125 11.522683
2006-04-20 07:55:54 51°17.526 2°52.619 -999 3.718084 34.235736 11.590101
2006-04-20 07:56:54 51°17.743 2°52.588 -999 3.722746 34.31947 11.623811
2006-04-20 07:57:54 51°17.959 2°52.576 -999 3.717878 34.338038 11.724939
2006-04-20 07:58:54 51°18.171 2°52.642 -999 3.709488 34.308377 11.623811
2006-04-20 07:59:54 51°18.347 2°52.823 -999 3.700269 34.213441 11.994614
2006-04-20 08:00:54 51°18.471 2°53.093 -999 3.686492 34.073352 12.365418
2006-04-20 08:01:54 51°18.548 2°53.4 -999 3.676651 33.945758 12.466546
2006-04-20 08:02:54 51°18.639 2°53.699 -999 3.663599 33.777854 12.567674
2006-04-20 08:03:54 51°18.73 2°53.998 -999 3.654795 33.669859 12.702512
2006-04-20 08:04:54 51°18.818 2°54.3 -999 3.641019 33.515288 12.904768
2006-04-20 08:05:54 51°18.909 2°54.599 -999 3.630765 33.392794 12.837349
2006-04-20 08:06:54 51°18.999 2°54.897 -999 3.631594 33.382112 13.005896
2006-04-20 08:07:54 51°19.089 2°55.193 -999 3.616265 33.219628 13.107024
2006-04-20 08:08:54 51°19.176 2°55.493 -999 3.595862 32.989073 13.241862
2006-04-20 08:09:54 51°19.263 2°55.792 -999 3.57805 32.800095 13.275571
2006-04-20 08:10:54 51°19.352 2°56.09 -999 3.573182 32.72687 13.241862
2006-04-20 08:11:54 51°19.438 2°56.388 -999 3.575564 32.748675 13.309281
2006-04-20 08:12:54 51°19.529 2°56.682 -999 3.551228 32.476815 13.612665
2006-04-20 08:13:54 51°19.62 2°56.975 -999 3.541183 32.381202 13.814922
2006-04-20 08:14:54 51°19.707 2°57.27 -999 3.540251 32.357255 14.084597
2006-04-20 08:15:54 51°19.797 2°57.56 -999 3.520888 32.162307 14.893623
2006-04-20 08:16:54 51°19.882 2°57.855 -999 3.508877 32.049228 14.994751
2006-04-20 08:17:54 51°19.97 2°58.146 -999 3.506806 32.023447 15.770067
2006-04-20 08:18:54 51°20.055 2°58.441 -999 3.497901 31.931572 16.680221
2006-04-20 08:19:54 51°20.146 2°58.733 -999 3.50225 31.986787 16.511674
2006-04-20 08:20:54 51°20.236 2°59.024 -999 3.506702 32.042303 16.477965
2006-04-20 08:21:54 51°20.326 2°59.316 -999 3.498833 31.950546 16.410546
2006-04-20 08:22:54 51°20.416 2°59.612 -999 3.503803 31.974723 15.803777
2006-04-20 08:23:54 51°20.51 2°59.906 -999 3.512292 31.986127 15.668939
2006-04-20 08:24:54 51°20.607 3°0.198 -999 3.50608 31.916977 15.904905
2006-04-20 08:25:54 51°20.702 3°0.489 -999 3.441992 31.320414 17.455537
2006-04-20 08:26:54 51°20.796 3°0.781 -999 3.410417 31.070408 18.129725
2006-04-20 08:27:54 51°20.906 3°1.061 -999 3.403689 31.017843 18.264563
2006-04-20 08:28:54 51°21.004 3°1.345 -999 3.397167 30.965799 18.3994
2006-04-20 08:29:54 51°21.114 3°1.616 -999 3.398205 31.156987 19.343264
2006-04-20 08:30:54 51°21.233 3°1.879 -999 3.383816 31.005275 19.073589
2006-04-20 08:31:54 51°21.351 3°2.143 -999 3.381435 30.984965 18.938751
2006-04-20 08:32:54 51°21.465 3°2.412 -999 3.366012 30.866182 19.343264
2006-04-20 08:33:54 51°21.57 3°2.689 -999 3.362078 30.819241 19.376973
2006-04-20 08:34:54 51°21.612 3°3 -999 3.357524 30.779135 19.208426
2006-04-20 08:35:54 51°21.685 3°3.297 -999 3.353177 30.734188 19.107298
2006-04-20 08:36:54 51°21.752 3°3.599 -999 3.340549 30.614368 19.242136
2006-04-20 08:37:54 51°21.811 3°3.906 -999 3.340031 30.599133 19.174717
2006-04-20 08:38:54 51°21.872 3°4.212 -999 3.340652 30.609277 18.97246
2006-04-20 08:39:54 51°21.928 3°4.521 -999 3.332165 30.538418 19.208426
2006-04-20 08:40:54 51°21.981 3°4.83 -999 3.31457 30.360544 19.376973
2006-04-20 08:41:54 51°22.03 3°5.141 -999 3.301115 30.23997 19.478101
2006-04-20 08:42:54 51°22.08 3°5.449 -999 3.288903 30.124392 19.612939
2006-04-20 08:43:54 51°22.134 3°5.757 -999 3.286109 30.0968 19.309554
2006-04-20 08:44:54 51°22.179 3°6.064 -999 3.281658 30.011724 19.444392
2006-04-20 08:45:54 51°22.221 3°6.372 -999 3.277001 29.989374 19.208426
2006-04-20 08:46:54 51°22.26 3°6.678 -999 3.278864 30.033127 18.736494
2006-04-20 08:47:54 51°22.299 3°6.983 -999 3.276174 30.045081 18.500529
2006-04-20 08:48:54 51°22.342 3°7.289 -999 3.272966 30.034412 18.534238
2006-04-20 08:49:54 51°22.38 3°7.595 -999 3.272966 30.023074 18.500529
2006-04-20 08:50:54 51°22.423 3°7.901 -999 3.270068 29.988357 18.736494
2006-04-20 08:51:54 51°22.467 3°8.207 -999 3.269137 29.980407 19.275845
2006-04-20 08:52:54 51°22.507 3°8.492 -999 3.254648 29.801081 18.905042
2006-04-20 08:53:54 51°22.524 3°8.672 -999 3.249474 29.780065 19.073589
2006-04-20 08:54:54 51°22.554 3°8.81 -999 3.243886 29.726366 19.039879
2006-04-20 08:55:54 51°22.591 3°8.932 -999 3.24606 29.764141 19.208426
2006-04-20 08:56:54 51°22.607 3°9.032 -999 3.249267 29.751021 19.00617
2006-04-20 08:57:54 51°22.618 3°9.115 -999 3.249991 29.754625 19.039879
2006-04-20 08:58:54 51°22.621 3°9.129 -999 3.251854 29.745849 19.00617
2006-04-20 08:59:54 51°22.617 3°9.126 -999 3.251026 29.746426 19.141007
2006-04-20 09:00:54 51°22.612 3°9.119 -999 3.24937 29.743099 19.208426
2006-04-20 09:01:54 51°22.608 3°9.109 -999 3.249888 29.745353 19.275845
2006-04-20 09:02:54 51°22.604 3°9.097 -999 3.250405 29.757325 19.343264
2006-04-20 09:03:54 51°22.6 3°9.083 -999 3.25175 29.764229 19.343264
2006-04-20 09:04:54 51°22.583 3°9.085 -999 3.252164 29.762442 19.376973
2006-04-20 09:05:54 51°22.499 3°9.091 -999 3.250405 29.759568 19.848905
2006-04-20 09:06:54 51°22.371 3°9.029 -999 3.249992 29.772582 20.253418
2006-04-20 09:07:54 51°22.237 3°8.938 -999 3.25082 29.828239 20.624221
2006-04-20 09:08:54 51°22.142 3°8.847 -999 3.251027 29.843875 20.927606
2006-04-20 09:09:54 51°22.088 3°8.723 -999 3.253304 29.87078 21.096153
2006-04-20 09:10:54 51°22.053 3°8.592 -999 3.250613 29.850954 21.534375
2006-04-20 09:11:54 51°22.033 3°8.455 -999 3.246991 29.811878 21.601794
2006-04-20 09:12:54 51°22.014 3°8.321 -999 3.246681 29.788444 21.062443
2006-04-20 09:13:54 51°21.992 3°8.189 -999 3.249474 29.750128 20.219708
2006-04-20 09:14:54 51°21.972 3°8.07 -999 3.257234 29.736162 19.646648
2006-04-20 09:15:54 51°21.957 3°7.972 -999 3.25889 29.730562 19.747777
2006-04-20 09:16:54 51°21.946 3°7.883 -999 3.258993 29.751709 20.017452
2006-04-20 09:17:54 51°21.937 3°7.8 -999 3.255372 29.736698 20.152289
2006-04-20 09:18:54 51°21.93 3°7.721 -999 3.253613 29.736793 20.354546
2006-04-20 09:19:54 51°21.924 3°7.644 -999 3.254855 29.767276 20.65793
2006-04-20 09:20:54 51°21.918 3°7.571 -999 3.256304 29.784189 21.096153
2006-04-20 09:21:54 51°21.91 3°7.499 -999 3.252371 29.749595 21.601794
2006-04-20 09:22:54 51°21.902 3°7.429 -999 3.251233 29.751511 22.174853
2006-04-20 09:23:54 51°21.893 3°7.358 -999 3.251957 29.764831 22.444529
2006-04-20 09:24:54 51°21.884 3°7.287 -999 3.252061 29.777849 22.613076
2006-04-20 09:25:54 51°21.874 3°7.216 -999 3.252165 29.78264 22.511947
2006-04-20 09:26:54 51°21.866 3°7.146 -999 3.251233 29.779186 22.242272
2006-04-20 09:27:54 51°21.857 3°7.074 -999 3.25144 29.775296 21.905178
2006-04-20 09:28:54 51°21.849 3°7.003 -999 3.250509 29.769595 21.736631
2006-04-20 09:29:54 51°21.84 3°6.932 -999 3.250198 29.763454 21.601794
2006-04-20 09:30:54 51°21.83 3°6.861 -999 3.251233 29.770204 21.534375
2006-04-20 09:31:54 51°21.822 3°6.787 -999 3.251337 29.77275 21.500665
2006-04-20 09:32:54 51°21.827 3°6.692 -999 3.251647 29.788626 21.905178
2006-04-20 09:33:54 51°21.858 3°6.598 -999 3.251441 29.799266 22.275982
2006-04-20 09:34:54 51°21.904 3°6.52 -999 3.250613 29.792365 22.040016
2006-04-20 09:35:54 51°21.958 3°6.493 -999 3.249992 29.781569 21.500665
2006-04-20 09:36:54 51°21.991 3°6.511 -999 3.252061 29.798819 21.028734
2006-04-20 09:37:54 51°21.984 3°6.548 -999 3.252372 29.801219 20.995024
2006-04-20 09:38:54 51°21.881 3°6.601 -999 3.251751 29.793422 21.2647
2006-04-20 09:39:54 51°21.68 3°6.596 -999 3.252786 29.797175 22.141144
2006-04-20 09:40:54 51°21.467 3°6.501 -999 3.249681 29.772428 22.545657
2006-04-20 09:41:54 51°21.253 3°6.396 -999 3.250716 29.778431 23.354683
2006-04-20 09:42:54 51°21.038 3°6.293 -999 3.247198 29.757716 24.939024
2006-04-20 09:43:54 51°20.831 3°6.176 -999 3.248232 29.748756 25.512084
2006-04-20 09:44:54 51°20.629 3°6.036 -999 3.24906 29.75341 24.467093
2006-04-20 09:45:54 51°20.428 3°5.895 -999 3.252578 29.777855 25.545794
2006-04-20 09:46:54 51°20.223 3°5.766 -999 3.258995 29.839149 26.152563
2006-04-20 09:47:54 51°20.012 3°5.671 -999 3.25413 29.771149 25.849178
2006-04-20 09:48:54 51°19.837 3°5.45 -999 3.255372 29.747135 24.837896
2006-04-20 09:49:54 51°19.715 3°5.197 -999 3.254233 29.717738 25.781759
2006-04-20 09:50:54 51°19.682 3°5.002 -999 3.256303 29.71261 25.377247
2006-04-20 09:51:54 51°19.667 3°4.941 -999 3.258683 29.720292 24.905315
2006-04-20 09:52:54 51°19.668 3°4.931 -999 3.257855 29.715649 25.680631
2006-04-20 09:53:54 51°19.668 3°4.916 -999 3.258062 29.722944 25.478375
2006-04-20 09:54:54 51°19.667 3°4.901 -999 3.259614 29.743834 25.309828
2006-04-20 09:55:54 51°19.663 3°4.886 -999 3.257958 29.732315 25.276118
2006-04-20 09:56:54 51°19.654 3°4.857 -999 3.258476 29.737543 25.17499
2006-04-20 09:57:54 51°19.597 3°4.772 -999 3.2592 29.73593 24.939024
2006-04-20 09:58:54 51°19.5 3°4.724 -999 3.260752 29.733755 25.242409
2006-04-20 09:59:54 51°19.395 3°4.722 -999 3.264581 29.743409 24.837896
2006-04-20 10:00:54 51°19.3 3°4.723 -999 3.26189 29.725921 25.343537
2006-04-20 10:01:54 51°19.216 3°4.699 -999 3.260959 29.734357 25.512084
2006-04-20 10:02:54 51°19.15 3°4.591 -999 3.260441 29.702396 25.579503
2006-04-20 10:03:54 51°19.086 3°4.47 -999 3.258579 29.69622 26.017725
2006-04-20 10:04:54 51°19.031 3°4.367 -999 3.259614 29.697013 25.815469
2006-04-20 10:05:54 51°18.992 3°4.285 -999 3.258682 29.687619 25.815469
2006-04-20 10:06:54 51°18.959 3°4.217 -999 3.259821 29.696875 25.478375
2006-04-20 10:07:54 51°18.93 3°4.155 -999 3.259407 29.688992 25.512084
2006-04-20 10:08:54 51°18.901 3°4.096 -999 3.2592 29.689129 25.613212
2006-04-20 10:09:54 51°18.875 3°4.039 -999 3.25982 29.686493 25.613212
2006-04-20 10:10:54 51°18.849 3°3.981 -999 3.259717 29.682485 25.680631
2006-04-20 10:11:54 51°18.824 3°3.921 -999 3.261166 29.693384 25.646922
2006-04-20 10:12:54 51°18.795 3°3.855 -999 3.261269 29.698876 25.916597
2006-04-20 10:13:54 51°18.764 3°3.785 -999 3.262821 29.702662 25.478375
2006-04-20 10:14:54 51°18.732 3°3.714 -999 3.26427 29.714299 25.512084
2006-04-20 10:15:54 51°18.7 3°3.644 -999 3.263235 29.706093 25.680631
2006-04-20 10:16:54 51°18.669 3°3.572 -999 3.264788 29.726191 25.680631
2006-04-20 10:17:54 51°18.639 3°3.501 -999 3.265305 29.723246 25.2087
2006-04-20 10:18:54 51°18.61 3°3.429 -999 3.267168 29.726444 24.669349
2006-04-20 10:19:54 51°18.586 3°3.357 -999 3.267685 29.726468 24.60193
2006-04-20 10:20:54 51°18.564 3°3.286 -999 3.269858 29.737237 24.568221
2006-04-20 10:21:54 51°18.541 3°3.216 -999 3.269444 29.738258 24.905315
2006-04-20 10:22:54 51°18.517 3°3.146 -999 3.270583 29.746015 25.141281
2006-04-20 10:23:54 51°18.489 3°3.078 -999 3.269651 29.732189 25.309828
2006-04-20 10:24:54 51°18.461 3°3.01 -999 3.272549 29.75247 25.17499
2006-04-20 10:25:54 51°18.433 3°2.944 -999 3.276067 29.781218 24.972734
2006-04-20 10:26:54 51°18.403 3°2.88 -999 3.273997 29.754455 24.939024
2006-04-20 10:27:53 51°18.374 3°2.818 -999 3.275032 29.770059 25.107571
2006-04-20 10:28:54 51°18.345 3°2.752 -999 3.275653 29.78447 25.2087
2006-04-20 10:29:54 51°18.321 3°2.673 -999 3.278655 29.81172 25.17499
2006-04-20 10:30:54 51°18.304 3°2.574 -999 3.28445 29.864132 25.006443
2006-04-20 10:31:54 51°18.299 3°2.469 -999 3.286209 29.853595 24.197418
2006-04-20 10:32:54 51°18.31 3°2.368 -999 3.292004 29.881432 23.624358
2006-04-20 10:33:54 51°18.341 3°2.282 -999 3.292108 29.870595 23.759195
2006-04-20 10:34:54 51°18.353 3°2.201 -999 3.297179 29.904478 23.691777
2006-04-20 10:35:54 51°18.338 3°2.103 -999 3.304423 29.957932 23.590648
2006-04-20 10:36:54 51°18.297 3°1.989 -999 3.31115 30.000941 23.388392
2006-04-20 10:37:54 51°18.206 3°1.767 -999 3.321914 30.075464 23.287264
2006-04-20 10:38:54 51°18.093 3°1.485 -999 3.334127 30.180822 23.422101
2006-04-20 10:39:54 51°17.979 3°1.176 -999 3.343753 30.268409 23.253554
2006-04-20 10:40:54 51°17.843 3°0.884 -999 3.350067 30.328758 23.118717
2006-04-20 10:41:54 51°17.733 3°0.562 -999 3.35193 30.328702 23.219845
2006-04-20 10:42:54 51°17.622 3°0.237 -999 3.356898 30.370275 23.287264
2006-04-20 10:43:54 51°17.503 2°59.92 -999 3.363419 30.41764 23.48952
2006-04-20 10:44:54 51°17.392 2°59.591 -999 3.373149 30.517462 23.725486
2006-04-20 10:45:54 51°17.272 2°59.272 -999 3.3894 30.655541 23.219845
2006-04-20 10:46:54 51°17.156 2°58.947 -999 3.415798 30.899845 22.781623
2006-04-20 10:47:54 51°17.047 2°58.615 -999 3.43381 31.035511 22.37711
2006-04-20 10:48:54 51°16.926 2°58.292 -999 3.454412 31.22681 22.107435
2006-04-20 10:49:54 51°16.81 2°57.963 -999 3.465386 31.306881 21.837759
2006-04-20 10:50:54 51°16.684 2°57.648 -999 3.49448 31.585577 21.332118
2006-04-20 10:51:54 51°16.56 2°57.329 -999 3.521194 31.810041 21.129862
2006-04-20 10:52:54 51°16.46 2°56.989 -999 3.540868 32.03582 21.062443
2006-04-20 10:53:54 51°16.327 2°56.679 -999 3.544182 32.062038 20.65793
2006-04-20 10:54:54 51°16.213 2°56.35 -999 3.574317 32.393732 20.523093
2006-04-20 10:55:54 51°16.069 2°56.055 -999 3.579702 32.430437 19.983742
2006-04-20 10:56:54 51°15.944 2°55.739 -999 3.616882 32.85679 20.017452
2006-04-20 10:57:54 51°15.796 2°55.451 -999 3.632211 33.032831 19.57923
2006-04-20 10:58:54 51°15.651 2°55.165 -999 3.645157 33.177723 20.253418
2006-04-20 10:59:55 51°15.453 2°54.978 -999 3.654168 33.226388 19.781486
2006-04-20 11:00:54 51°15.244 2°54.883 -999 3.666287 33.341625 20.927606
2006-04-20 11:01:54 51°15.03 2°54.84 -999 3.678509 33.482646 19.950033
2006-04-20 11:02:54 51°14.81 2°54.798 -999 3.692907 33.603713 18.601657
2006-04-20 11:03:54 51°14.598 2°54.862 -999 3.700572 33.668937 18.028597
2006-04-20 11:04:54 51°14.416 2°55.034 -999 3.702437 33.693624 18.230853
2006-04-20 11:05:54 51°14.283 2°55.246 -999 3.639044 32.914716 19.174717
2006-04-20 11:06:54 51°14.174 2°55.373 -999 3.603209 32.52584 35.759742
2006-04-20 11:07:54 51°14.079 2°55.444 -999 3.605176 32.546383 34.815879
2006-04-20 11:08:54 51°13.991 2°55.509 -999 3.605383 32.542096 34.141691
2006-04-20 11:09:54 51°13.914 2°55.568 -999 3.605383 32.532552 33.164118
2006-04-20 11:10:54 51°13.848 2°55.617 -999 3.605694 32.515802 32.48993
2006-04-20 11:11:54 51°13.795 2°55.666 -999 3.606315 32.513297 32.253965
2006-04-20 11:12:54 51°13.752 2°55.729 -999 3.60735 32.514151 32.355093
2006-04-20 11:13:54 51°13.711 2°55.805 -999 3.608904 32.501162 32.591059
2006-04-20 11:14:54 51°13.671 2°55.889 -999 3.610457 32.506412 32.827024
2006-04-20 11:15:54 51°13.635 2°55.97 -999 3.612321 32.498933 33.029281
2006-04-20 11:16:54 51°13.61 2°56.04 -999 3.614185 32.511246 33.197828
2006-04-20 11:17:54 51°13.6 2°56.092 -999 3.617395 32.52831 33.332665
2006-04-20 11:18:54 51°13.6 2°56.092 -999 3.61957 32.525519 33.501212
2006-04-20 11:19:54 51°13.599 2°56.097 -999 3.621745 32.52985 33.602341
2006-04-20 11:20:55 51°13.6 2°56.1 -999 3.624023 32.534423 33.669759
2006-04-20 11:21:55 51°13.601 2°56.1 -999 3.626508 32.535533 33.703469
2006-04-20 11:22:54 51°13.602 2°56.1 -999 3.629097 32.54557 33.737178